Palmdale, CA (93590)

11:25 AM PDT on August 24, 2016 (GMT -0700)
Mount Emma | | Change Station

Elev 3300 ft 34.51 °N, 118.05 °W | Updated 3 minutes ago

Clear
Clear
87.9 °F
Feels Like 85 °F
N
5.0
Wind Variable Wind from SSW
Gusts 15.0 mph

Today
High -- | Low -- °F
--% Chance of Precip.
Yesterday
High -- | Low -- °F
Precip. -- in
Pressure 29.99 in
Visibility 10.0 miles
Clouds Clear
Heat Index 85 °F
Dew Point 43 °F
Humidity 21%
Rainfall Not available.
Snow Depth Not available.
6:20 AM 7:28 PM
Waning Gibbous, 54% visible
METAR KPMD 241753Z AUTO 33003KT 10SM CLR 32/04 A3008 RMK AO2 SLP155 T03220039 10322 20194 58005
Pressure 29.99 in
Visibility 10.0 miles
Clouds Clear
Heat Index 85 °F
Dew Point 43 °F
Humidity 21%
Rainfall Not available.
Snow Depth Not available.
6:20 AM 7:28 PM
Waning Gibbous, 54% visible
METAR KPMD 241753Z AUTO 33003KT 10SM CLR 32/04 A3008 RMK AO2 SLP155 T03220039 10322 20194 58005

10-Day Weather Forecast

Almanac

Astronomy

Aug. 24, 2016 Rise Set
Actual Time
Civil Twilight
Nautical Twilight
Astronomical Twilight
Moon
Length of Visible Light
Length of Day
Tomorrow will be .
, % of the Moon is Illuminated

Today's Extremes

State Highs State Lows

Community

WunderPhotos

Upload Photos

1,934,664 photos uploaded!

WunderBlog® & News

Nearby

Air Quality

  Air Quality AQ Index Pollutant
Not available.

Snow Depth

Station Depth Elevation

Earthquake Activity

City Distance Mag. Time & Date
Minimum magnitude displayed is 2.5.

Coastal Water Temperatures

Place Temperature

Stations

Nearby Weather Stations

Station Location Temp. Windchill Dew Point Humidity Wind Precip. Elev Updated Type
                   

Watches & Warnings

There are currently no watches in effect.